Time;durP1;ratioP1;P1;durP2;ratioP2;P2;SDS_P1;SDS_P2;PMS_P1;PMS_P2;Temp;Humidity;BMP_temperature;BMP_pressure;BME280_temperature;BME280_humidity;BME280_pressure;Samples;Min_cycle;Max_cycle;Signal;HPM_P1;HPM_P2
2024/02/27 00:01:17;;;;;;;16.70;9.02;;;;;;;8.74;100.00;100090.97;5088113;28;20035;-79
2024/02/27 00:03:43;;;;;;;18.55;8.98;;;;;;;8.35;100.00;100084.59;5088104;28;20093;-78
2024/02/27 00:06:08;;;;;;;19.45;10.13;;;;;;;8.27;100.00;100082.97;5087102;28;20036;-78
2024/02/27 00:08:33;;;;;;;17.88;9.43;;;;;;;8.45;100.00;100064.59;5069674;28;20032;-77
2024/02/27 00:11:01;;;;;;;17.88;9.05;;;;;;;8.23;100.00;100055.16;5087475;28;20036;-78
2024/02/27 00:13:27;;;;;;;17.23;8.77;;;;;;;8.40;100.00;100090.97;5088608;28;21061;-78
2024/02/27 00:15:52;;;;;;;20.42;9.63;;;;;;;8.28;100.00;100079.28;5069464;28;20058;-78
2024/02/27 00:18:18;;;;;;;23.73;12.23;;;;;;;8.42;100.00;100083.63;5087830;28;20039;-78
2024/02/27 00:20:43;;;;;;;24.55;12.65;;;;;;;8.36;100.00;100087.06;5088004;28;20118;-78
2024/02/27 00:23:09;;;;;;;21.30;12.60;;;;;;;8.35;100.00;100084.59;5087829;28;20111;-77
2024/02/27 00:25:34;;;;;;;24.05;12.27;;;;;;;8.09;100.00;100077.41;5069373;28;20118;-77
2024/02/27 00:28:01;;;;;;;24.10;12.38;;;;;;;7.94;100.00;100073.09;5087362;28;20446;-78
2024/02/27 00:30:26;;;;;;;26.60;13.15;;;;;;;7.58;100.00;100074.25;5087289;28;20039;-78
2024/02/27 00:32:54;;;;;;;23.80;12.63;;;;;;;7.81;100.00;100097.78;5069355;28;20032;-77
2024/02/27 00:35:20;;;;;;;24.48;13.55;;;;;;;7.31;100.00;100075.16;5069270;28;20051;-78
2024/02/27 00:37:45;;;;;;;26.75;12.98;;;;;;;7.51;100.00;100099.94;5087562;28;20067;-78
2024/02/27 00:40:12;;;;;;;26.00;13.98;;;;;;;7.29;100.00;100085.13;5086960;28;20039;-78
2024/02/27 00:42:38;;;;;;;26.05;14.63;;;;;;;7.31;100.00;100110.44;5087669;28;20103;-78
2024/02/27 00:45:04;;;;;;;30.27;16.20;;;;;;;7.24;100.00;100102.47;5087415;28;20122;-78
2024/02/27 00:47:30;;;;;;;33.13;16.35;;;;;;;7.39;100.00;100101.50;5087516;28;20501;-78
2024/02/27 00:49:55;;;;;;;29.58;16.42;;;;;;;7.54;100.00;100115.47;5068916;28;20027;-77
2024/02/27 00:52:21;;;;;;;32.75;16.92;;;;;;;7.29;100.00;100090.44;5068747;28;20536;-77
2024/02/27 00:54:47;;;;;;;31.23;16.77;;;;;;;7.16;100.00;100102.63;5086786;28;20055;-78
2024/02/27 00:57:12;;;;;;;34.17;17.20;;;;;;;6.72;100.00;100074.63;5087194;28;20024;-77
2024/02/27 00:59:37;;;;;;;36.70;18.38;;;;;;;6.77;100.00;100101.34;5087249;28;20031;-78
2024/02/27 01:02:03;;;;;;;35.58;18.80;;;;;;;6.89;100.00;100103.47;5087008;28;20036;-79
2024/02/27 01:04:28;;;;;;;37.28;19.08;;;;;;;6.67;100.00;100102.72;5086982;28;20749;-78
2024/02/27 01:06:54;;;;;;;42.70;20.42;;;;;;;6.67;100.00;100092.91;5068183;28;20024;-77
2024/02/27 01:09:19;;;;;;;43.38;20.60;;;;;;;6.78;100.00;100097.69;5087207;28;20114;-78
2024/02/27 01:11:45;;;;;;;42.20;20.50;;;;;;;6.76;100.00;100097.06;5068533;28;20499;-77
2024/02/27 01:14:10;;;;;;;44.22;21.55;;;;;;;6.64;100.00;100085.38;5087211;28;20057;-77
2024/02/27 01:16:35;;;;;;;42.20;21.92;;;;;;;6.80;100.00;100106.28;5086445;28;20063;-78
2024/02/27 01:19:01;;;;;;;40.88;20.45;;;;;;;6.64;100.00;100093.31;5086684;28;20392;-78
2024/02/27 01:21:26;;;;;;;40.03;22.05;;;;;;;6.67;100.00;100086.81;5068559;28;20488;-77
2024/02/27 01:23:51;;;;;;;43.00;20.35;;;;;;;6.89;100.00;100100.84;5086363;28;20074;-78
2024/02/27 01:26:17;;;;;;;42.00;21.52;;;;;;;6.76;100.00;100102.38;5067678;28;20035;-77
2024/02/27 01:28:42;;;;;;;38.90;21.50;;;;;;;6.96;100.00;100099.03;5086161;28;20040;-78
2024/02/27 01:31:09;;;;;;;38.58;20.00;;;;;;;6.82;100.00;100098.13;5068292;28;20044;-78
2024/02/27 01:33:34;;;;;;;41.08;20.13;;;;;;;6.73;100.00;100102.75;5085873;28;20040;-78
2024/02/27 01:36:00;;;;;;;42.58;20.98;;;;;;;6.77;100.00;100104.00;5086097;28;20093;-78
2024/02/27 01:38:25;;;;;;;42.35;20.33;;;;;;;6.80;100.00;100114.25;5086142;28;20031;-78
2024/02/27 01:40:50;;;;;;;43.13;21.50;;;;;;;7.01;100.00;100120.50;5085868;28;20119;-78
2024/02/27 01:43:23;;;;;;;43.17;20.42;;;;;;;6.86;100.00;100127.72;5086354;28;20028;-77
2024/02/27 01:46:12;;;;;;;42.60;21.05;;;;;;;6.86;100.00;100122.41;5068099;28;20035;-77
2024/02/27 01:48:38;;;;;;;41.80;21.55;;;;;;;6.83;100.00;100111.19;5083049;28;20082;-78
2024/02/27 01:51:04;;;;;;;42.30;20.75;;;;;;;7.02;100.00;100114.97;5085792;28;20069;-78
2024/02/27 01:53:30;;;;;;;43.00;21.13;;;;;;;6.98;100.00;100095.16;5086109;28;20097;-76
2024/02/27 01:55:56;;;;;;;40.28;19.58;;;;;;;6.93;100.00;100107.38;5086035;28;20074;-78
2024/02/27 01:58:22;;;;;;;36.67;19.05;;;;;;;6.91;100.00;100120.03;5067867;28;20036;-77
2024/02/27 02:00:47;;;;;;;41.40;20.63;;;;;;;6.94;100.00;100106.34;5067690;28;20042;-77
2024/02/27 02:03:15;;;;;;;37.20;18.73;;;;;;;6.72;100.00;100090.53;5086241;28;20024;-77
2024/02/27 02:05:41;;;;;;;39.03;19.58;;;;;;;6.80;100.00;100095.69;5067795;28;20119;-76
2024/02/27 02:08:07;;;;;;;38.80;18.80;;;;;;;6.83;100.00;100107.72;5085604;28;20047;-77
2024/02/27 02:10:33;;;;;;;40.22;20.45;;;;;;;6.68;100.00;100121.06;5085947;28;20036;-77
2024/02/27 02:12:59;;;;;;;39.33;19.85;;;;;;;6.92;100.00;100119.00;5085846;28;20032;-77
2024/02/27 02:15:24;;;;;;;42.80;19.45;;;;;;;7.03;100.00;100115.81;5089794;28;20024;-78
2024/02/27 02:17:53;;;;;;;42.28;22.02;;;;;;;6.98;100.00;100124.31;5089865;28;20043;-77
2024/02/27 02:20:18;;;;;;;;;;;;;;;7.11;100.00;100126.28;5090667;28;20546;-77
2024/02/27 02:22:44;;;;;;;54.53;31.95;;;;;;;6.92;100.00;100103.09;5090256;28;19963;-77
2024/02/27 02:25:12;;;;;;;45.42;23.00;;;;;;;7.15;100.00;100127.50;5090313;28;20050;-78
2024/02/27 02:27:43;;;;;;;89.88;55.38;;;;;;;6.83;100.00;100107.72;5089607;28;20073;-78
2024/02/27 02:30:12;;;;;;;49.85;29.08;;;;;;;6.88;100.00;100101.84;5090002;28;20054;-77
2024/02/27 02:32:48;;;;;;;54.22;30.50;;;;;;;7.00;100.00;100119.66;5089535;28;20526;-78
2024/02/27 02:35:15;;;;;;;55.25;27.55;;;;;;;7.01;100.00;100117.84;5089785;28;20390;-77
2024/02/27 02:37:41;;;;;;;38.58;18.77;;;;;;;7.06;100.00;100110.09;5080409;28;20089;-78
2024/02/27 02:40:07;;;;;;;41.83;21.05;;;;;;;7.16;100.00;100133.63;5089719;28;20080;-77
2024/02/27 02:42:33;;;;;;;42.70;20.75;;;;;;;7.21;100.00;100137.34;5089409;28;20478;-77
2024/02/27 02:44:58;;;;;;;59.05;29.00;;;;;;;7.18;100.00;100142.22;5089586;28;20072;-78
2024/02/27 02:47:24;;;;;;;187.45;98.80;;;;;;;7.07;100.00;100145.41;5089676;28;21452;-77
2024/02/27 02:49:49;;;;;;;65.30;35.00;;;;;;;7.04;100.00;100133.34;5088976;28;20417;-78
2024/02/27 02:52:15;;;;;;;82.55;48.10;;;;;;;6.90;100.00;100147.53;5089701;28;20035;-78
2024/02/27 02:54:40;;;;;;;38.38;19.15;;;;;;;6.77;100.00;100127.84;5071171;28;20429;-77
2024/02/27 02:57:05;;;;;;;41.90;20.77;;;;;;;6.88;100.00;100136.28;5089341;28;20113;-78
2024/02/27 02:59:31;;;;;;;36.28;20.08;;;;;;;6.99;100.00;100149.84;5089343;28;20062;-78
2024/02/27 03:01:56;;;;;;;41.80;21.65;;;;;;;6.95;100.00;100137.19;5070818;28;20733;-77
2024/02/27 03:04:22;;;;;;;36.10;19.27;;;;;;;7.01;100.00;100141.69;5088905;28;20120;-77
2024/02/27 03:06:47;;;;;;;38.70;18.95;;;;;;;6.95;100.00;100158.38;5070816;28;20500;-77
2024/02/27 03:09:12;;;;;;;35.90;17.52;;;;;;;6.65;100.00;100132.03;5070741;28;20039;-78
2024/02/27 03:11:38;;;;;;;38.92;19.25;;;;;;;6.87;100.00;100132.84;5089072;28;20067;-77
2024/02/27 03:14:04;;;;;;;35.80;18.17;;;;;;;6.92;100.00;100132.25;5070914;28;20690;-77
2024/02/27 03:16:30;;;;;;;40.08;20.10;;;;;;;6.98;100.00;100142.06;5088803;28;20067;-76
2024/02/27 03:18:55;;;;;;;39.53;20.73;;;;;;;7.16;100.00;100155.66;5083191;28;20028;-77
2024/02/27 03:21:21;;;;;;;39.30;19.60;;;;;;;6.90;100.00;100140.38;5070874;28;20039;-76
2024/02/27 03:23:46;;;;;;;40.38;18.20;;;;;;;6.93;100.00;100144.50;5088817;28;20091;-77
2024/02/27 03:26:18;;;;;;;40.97;21.73;;;;;;;6.92;100.00;100164.06;5087808;28;20499;-77
2024/02/27 03:28:43;;;;;;;38.80;19.17;;;;;;;6.83;100.00;100155.44;5088373;28;20031;-78
2024/02/27 03:31:10;;;;;;;39.33;19.95;;;;;;;6.41;100.00;100126.13;5088555;28;20028;-77
2024/02/27 03:33:35;;;;;;;36.70;18.45;;;;;;;6.62;100.00;100143.03;5088546;28;20103;-78
2024/02/27 03:36:03;;;;;;;35.35;17.73;;;;;;;6.83;100.00;100156.25;5088238;28;20026;-77
2024/02/27 03:38:31;;;;;;;36.20;18.30;;;;;;;6.74;100.00;100168.00;5069989;28;20031;-77
2024/02/27 03:40:56;;;;;;;41.33;20.23;;;;;;;6.91;100.00;100151.84;5070336;28;20027;-76
2024/02/27 03:43:22;;;;;;;38.78;19.65;;;;;;;6.73;100.00;100171.66;5070181;28;20111;-77
2024/02/27 03:45:47;;;;;;;44.67;22.10;;;;;;;6.65;100.00;100166.50;5088397;28;20043;-77
2024/02/27 03:48:12;;;;;;;40.75;21.15;;;;;;;6.67;100.00;100172.44;5087719;28;20020;-77
2024/02/27 03:50:38;;;;;;;40.17;20.20;;;;;;;6.78;100.00;100179.88;5087904;28;20046;-78
2024/02/27 03:53:03;;;;;;;41.17;21.15;;;;;;;6.81;100.00;100174.19;5070280;28;20042;-77
2024/02/27 03:55:29;;;;;;;38.33;19.90;;;;;;;6.72;100.00;100174.50;5088349;28;20063;-76
2024/02/27 03:57:54;;;;;;;40.40;20.30;;;;;;;6.51;100.00;100167.38;5069835;28;20476;-77
2024/02/27 04:00:19;;;;;;;39.85;21.92;;;;;;;6.70;100.00;100181.81;5070046;28;20064;-77
2024/02/27 04:02:45;;;;;;;44.20;20.95;;;;;;;6.56;100.00;100154.38;5087943;28;20500;-78
2024/02/27 04:05:11;;;;;;;40.15;19.90;;;;;;;6.49;100.00;100185.31;5069923;28;20083;-77
2024/02/27 04:07:36;;;;;;;44.15;21.80;;;;;;;6.42;100.00;100164.06;5088152;28;20040;-78
2024/02/27 04:10:02;;;;;;;41.38;20.27;;;;;;;6.36;100.00;100186.81;5087624;28;20035;-78
2024/02/27 04:12:27;;;;;;;41.00;21.13;;;;;;;6.19;100.00;100143.03;5088009;28;20032;-77
2024/02/27 04:14:53;;;;;;;45.10;22.02;;;;;;;6.56;100.00;100164.97;5088105;28;20098;-77
2024/02/27 04:17:19;;;;;;;41.85;22.73;;;;;;;6.62;100.00;100196.03;5087337;28;20036;-78
2024/02/27 04:19:44;;;;;;;45.00;21.30;;;;;;;6.59;100.00;100185.81;5087805;28;20028;-77
2024/02/27 04:22:10;;;;;;;44.30;22.38;;;;;;;6.63;100.00;100177.28;5069068;28;20047;-78
2024/02/27 04:24:35;;;;;;;45.60;21.80;;;;;;;6.71;100.00;100194.88;5087756;28;20069;-78
2024/02/27 04:27:02;;;;;;;49.03;23.02;;;;;;;6.77;100.00;100180.88;5087189;28;20085;-77
2024/02/27 04:29:28;;;;;;;45.92;22.08;;;;;;;6.75;100.00;100201.44;5087128;28;20500;-77
2024/02/27 04:31:53;;;;;;;44.28;22.42;;;;;;;6.66;100.00;100181.41;5087510;28;20020;-77
2024/02/27 04:34:18;;;;;;;52.35;24.98;;;;;;;6.51;100.00;100177.97;5087321;28;20016;-76
2024/02/27 04:36:46;;;;;;;48.53;22.45;;;;;;;6.49;100.00;100166.75;5087492;28;20031;-77
2024/02/27 04:39:16;;;;;;;50.33;24.38;;;;;;;6.59;100.00;100189.25;5086866;28;20028;-77
2024/02/27 04:41:42;;;;;;;49.20;20.73;;;;;;;6.38;100.00;100176.03;5069256;28;20475;-78
2024/02/27 04:44:10;;;;;;;49.40;21.75;;;;;;;6.47;100.00;100182.84;5086982;28;20032;-77
2024/02/27 04:46:35;;;;;;;42.60;20.67;;;;;;;6.44;100.00;100189.34;5087342;28;20046;-78
2024/02/27 04:49:01;;;;;;;46.53;22.75;;;;;;;6.23;100.00;100181.34;5068731;28;20031;-77
2024/02/27 04:51:26;;;;;;;40.28;19.08;;;;;;;5.99;100.00;100177.25;5087024;28;20028;-77
2024/02/27 04:53:51;;;;;;;42.30;21.40;;;;;;;6.48;100.00;100186.28;5087365;28;20028;-77
2024/02/27 04:56:17;;;;;;;34.55;17.63;;;;;;;6.33;100.00;100202.25;5087100;28;20036;-77
2024/02/27 04:58:42;;;;;;;29.50;15.13;;;;;;;6.17;100.00;100206.78;5068636;28;20057;-77
2024/02/27 05:01:14;;;;;;;23.35;12.52;;;;;;;6.22;100.00;100217.63;5086764;28;20099;-77
2024/02/27 05:03:42;;;;;;;22.08;11.65;;;;;;;6.23;100.00;100221.09;5086959;28;20561;-78
2024/02/27 05:06:08;;;;;;;23.27;12.45;;;;;;;5.89;100.00;100203.97;5068668;28;20507;-78
2024/02/27 05:08:33;;;;;;;21.92;10.43;;;;;;;5.90;100.00;100202.94;5086214;28;20484;-79
2024/02/27 05:10:59;;;;;;;24.20;12.73;;;;;;;5.81;100.00;100212.81;5086769;28;20127;-78
2024/02/27 05:13:25;;;;;;;24.83;12.65;;;;;;;5.94;100.00;100225.41;5086531;28;20027;-78
2024/02/27 05:15:51;;;;;;;25.83;13.00;;;;;;;5.77;100.00;100205.44;5068420;28;20031;-78
2024/02/27 05:18:16;;;;;;;28.00;12.90;;;;;;;5.46;100.00;100214.38;5086813;28;20038;-77
2024/02/27 05:20:42;;;;;;;30.23;12.68;;;;;;;5.47;100.00;100218.66;5068429;28;20052;-78
2024/02/27 05:23:07;;;;;;;28.67;12.90;;;;;;;5.40;100.00;100208.00;5068226;28;20043;-78
2024/02/27 05:25:33;;;;;;;23.65;14.55;;;;;;;5.70;100.00;100228.34;5068270;28;20515;-78
2024/02/27 05:27:58;;;;;;;25.35;13.70;;;;;;;5.54;100.00;100243.41;5086414;28;20047;-78
2024/02/27 05:30:23;;;;;;;27.30;14.00;;;;;;;5.58;100.00;100252.63;5068230;28;20036;-78
2024/02/27 05:32:49;;;;;;;26.80;17.23;;;;;;;5.75;100.00;100260.38;5086155;28;20139;-78
2024/02/27 05:35:14;;;;;;;35.83;19.52;;;;;;;5.66;100.00;100251.72;5086542;28;20023;-78
2024/02/27 05:37:40;;;;;;;26.85;15.77;;;;;;;5.49;100.00;100227.25;5086248;28;20058;-78
2024/02/27 05:40:09;;;;;;;29.20;15.80;;;;;;;5.38;100.00;100227.69;5085713;28;20024;-78
2024/02/27 05:42:35;;;;;;;31.80;15.13;;;;;;;5.58;100.00;100239.38;5086427;28;20036;-79
2024/02/27 05:45:01;;;;;;;28.05;15.00;;;;;;;5.93;100.00;100289.94;5085945;28;20035;-77
2024/02/27 05:47:26;;;;;;;26.40;13.35;;;;;;;5.73;100.00;100294.13;5086037;28;20077;-79
2024/02/27 05:49:53;;;;;;;50.55;28.25;;;;;;;5.53;100.00;100264.75;5085517;28;20051;-78
2024/02/27 05:52:18;;;;;;;28.55;14.98;;;;;;;5.58;100.00;100299.41;5068286;28;20074;-78
2024/02/27 05:54:44;;;;;;;28.90;13.52;;;;;;;5.44;100.00;100277.22;5086286;28;20115;-79
2024/02/27 05:57:11;;;;;;;23.60;12.73;;;;;;;5.61;100.00;100305.16;5086376;28;20508;-77
2024/02/27 05:59:37;;;;;;;32.30;17.08;;;;;;;5.72;100.00;100309.19;5067896;28;20454;-78
2024/02/27 06:02:03;;;;;;;30.95;16.38;;;;;;;5.86;100.00;100296.16;5086222;28;20477;-77
2024/02/27 06:04:29;;;;;;;34.95;21.23;;;;;;;5.60;100.00;100327.34;5085908;28;20036;-79
2024/02/27 06:06:54;;;;;;;32.28;18.70;;;;;;;5.75;100.00;100315.94;5086402;28;20027;-77
2024/02/27 06:09:19;;;;;;;37.80;22.55;;;;;;;5.81;100.00;100305.44;5086276;28;20012;-78
2024/02/27 06:11:45;;;;;;;34.13;17.58;;;;;;;5.55;100.00;100279.41;5085968;28;20073;-78
2024/02/27 06:14:11;;;;;;;31.77;19.50;;;;;;;5.81;100.00;100294.88;5086180;28;20028;-78
2024/02/27 06:16:36;;;;;;;39.33;18.20;;;;;;;6.01;100.00;100305.78;5086376;28;20190;-79
2024/02/27 06:19:02;;;;;;;26.00;14.10;;;;;;;5.91;100.00;100305.19;5067838;28;20716;-78
2024/02/27 06:24:11;;;;;;;27.58;13.82;;;;;;;5.98;100.00;100335.25;5085131;28;20558;-79
2024/02/27 06:26:37;;;;;;;31.67;16.38;;;;;;;5.87;100.00;100330.38;5085578;28;20044;-78
2024/02/27 06:29:03;;;;;;;32.28;15.70;;;;;;;5.99;100.00;100349.31;5084628;28;20086;-78
2024/02/27 06:31:28;;;;;;;30.20;16.08;;;;;;;5.92;100.00;100332.47;5085858;28;20036;-79
2024/02/27 06:33:54;;;;;;;28.25;14.32;;;;;;;6.25;100.00;100359.44;5086055;28;20028;-78
2024/02/27 06:36:20;;;;;;;28.48;14.13;;;;;;;6.26;100.00;100360.28;5086069;28;20063;-79
2024/02/27 06:38:45;;;;;;;30.67;14.98;;;;;;;6.57;100.00;100365.34;5085830;28;20048;-78
2024/02/27 06:41:10;;;;;;;27.73;13.48;;;;;;;6.48;100.00;100358.50;5077679;28;20123;-78
2024/02/27 06:43:36;;;;;;;27.27;14.40;;;;;;;6.44;100.00;100332.41;5085541;28;20024;-78
2024/02/27 06:46:03;;;;;;;27.17;13.43;;;;;;;6.54;100.00;100350.66;5086274;28;20020;-77
2024/02/27 06:48:30;;;;;;;28.77;14.25;;;;;;;6.58;100.00;100356.41;5075473;28;20062;-79
2024/02/27 06:50:55;;;;;;;30.85;15.60;;;;;;;6.45;100.00;100359.69;5097449;28;20027;-78
2024/02/27 06:53:24;;;;;;;36.60;18.40;;;;;;;6.62;100.00;100366.44;5098774;28;20032;-78
2024/02/27 06:55:49;;;;;;;;;;;;;;;6.80;100.00;100395.22;5097089;28;20089;-78
2024/02/27 06:58:16;;;;;;;29.73;15.63;;;;;;;6.69;100.00;100385.06;5097890;28;19912;-78
2024/02/27 07:00:42;;;;;;;27.55;14.60;;;;;;;6.46;100.00;100393.16;5085207;28;20020;-78
2024/02/27 07:03:07;;;;;;;30.38;15.65;;;;;;;6.39;100.00;100389.56;5101045;28;20069;-79
2024/02/27 07:05:34;;;;;;;43.25;20.77;;;;;;;5.82;100.00;100298.31;5097713;28;20038;-79
2024/02/27 07:08:00;;;;;;;57.67;25.17;;;;;;;6.31;100.00;100353.41;5097165;28;20032;-78
2024/02/27 07:10:25;;;;;;;36.63;18.52;;;;;;;6.36;100.00;100366.94;5086449;28;20032;-78
2024/02/27 07:12:51;;;;;;;40.85;25.58;;;;;;;6.51;100.00;100387.28;5096867;28;20042;-78
2024/02/27 07:15:16;;;;;;;35.28;21.05;;;;;;;6.54;100.00;100384.25;5078285;28;20492;-78
2024/02/27 07:17:42;;;;;;;29.10;15.88;;;;;;;7.63;100.00;100400.94;5096265;28;20099;-78
2024/02/27 07:20:09;;;;;;;35.53;21.15;;;;;;;7.51;100.00;100396.34;5094440;28;20033;-78
2024/02/27 07:22:35;;;;;;;28.58;15.88;;;;;;;7.37;100.00;100390.06;5091930;28;20504;-78
2024/02/27 07:25:00;;;;;;;27.52;16.40;;;;;;;9.96;100.00;100385.03;5090976;28;20035;-79
2024/02/27 07:27:26;;;;;;;27.38;14.32;;;;;;;10.51;100.00;100402.59;5090083;28;20075;-78
2024/02/27 07:29:51;;;;;;;29.90;15.82;;;;;;;10.90;100.00;100385.59;5089782;28;20500;-78
2024/02/27 07:32:17;;;;;;;31.40;16.25;;;;;;;10.06;100.00;100401.44;5071271;28;20504;-78
2024/02/27 07:34:42;;;;;;;32.00;15.73;;;;;;;9.95;100.00;100394.06;5089366;28;20066;-78
2024/02/27 07:37:10;;;;;;;31.63;17.48;;;;;;;11.84;100.00;100429.34;5089418;28;20035;-78
2024/02/27 07:39:36;;;;;;;30.92;19.85;;;;;;;9.94;100.00;100408.41;5089213;28;20028;-78
2024/02/27 07:42:02;;;;;;;35.38;18.00;;;;;;;9.16;100.00;100410.81;5088562;28;20076;-78
2024/02/27 07:44:28;;;;;;;40.55;22.52;;;;;;;11.67;100.00;100436.28;5070410;28;20416;-78
2024/02/27 07:46:53;;;;;;;84.50;59.13;;;;;;;11.11;100.00;100424.50;5088726;28;20112;-78
2024/02/27 07:49:19;;;;;;;36.78;19.02;;;;;;;11.75;100.00;100432.50;5088517;28;20066;-78
2024/02/27 07:51:45;;;;;;;36.05;19.52;;;;;;;9.95;100.00;100426.06;5069903;28;20492;-78
2024/02/27 07:54:11;;;;;;;35.60;20.17;;;;;;;10.90;100.00;100411.47;5070237;28;20118;-77
2024/02/27 07:56:36;;;;;;;36.65;19.27;;;;;;;9.96;100.00;100427.69;5070315;28;20197;-78
2024/02/27 07:59:02;;;;;;;42.65;22.02;;;;;;;10.24;100.00;100394.66;5087811;28;20020;-79
2024/02/27 08:01:29;;;;;;;35.42;20.30;;;;;;;9.99;100.00;100419.28;5088059;28;20032;-77
2024/02/27 08:03:55;;;;;;;39.80;21.45;;;;;;;8.70;100.00;100408.78;5088561;28;20471;-78
2024/02/27 08:06:21;;;;;;;37.30;19.77;;;;;;;8.57;100.00;100390.97;5088176;28;20031;-78
2024/02/27 08:08:47;;;;;;;35.33;18.83;;;;;;;8.58;100.00;100405.88;5088230;28;20206;-78
2024/02/27 08:11:12;;;;;;;44.45;23.13;;;;;;;9.01;100.00;100397.66;5087188;28;20123;-78
2024/02/27 08:13:37;;;;;;;37.72;19.90;;;;;;;9.18;100.00;100395.47;5088040;28;20734;-78
2024/02/27 08:16:03;;;;;;;40.08;21.70;;;;;;;9.40;100.00;100417.41;5087882;28;20078;-78
2024/02/27 08:18:29;;;;;;;32.60;18.00;;;;;;;9.32;100.00;100425.59;5088270;28;20074;-78
2024/02/27 08:20:54;;;;;;;37.42;19.15;;;;;;;8.79;100.00;100421.72;5087476;28;20028;-78
2024/02/27 08:23:19;;;;;;;38.58;18.92;;;;;;;8.83;100.00;100407.03;5087298;28;20758;-77
2024/02/27 08:25:45;;;;;;;35.58;18.73;;;;;;;9.09;100.00;100416.09;5087145;28;20032;-77
2024/02/27 08:28:11;;;;;;;32.97;18.50;;;;;;;9.25;100.00;100421.06;5086632;28;20702;-77
2024/02/27 08:30:36;;;;;;;34.03;18.30;;;;;;;8.82;100.00;100416.00;5087332;28;20138;-78
2024/02/27 08:33:03;;;;;;;37.78;18.60;;;;;;;8.75;100.00;100414.34;5069558;28;20061;-77
2024/02/27 08:35:29;;;;;;;35.05;18.05;;;;;;;9.36;100.00;100416.19;5087916;28;20152;-77
2024/02/27 08:37:55;;;;;;;36.70;19.48;;;;;;;9.55;100.00;100415.38;5088016;28;20078;-77
2024/02/27 08:40:21;;;;;;;34.25;16.95;;;;;;;9.51;100.00;100392.84;5086266;28;20056;-76
2024/02/27 08:42:46;;;;;;;34.20;17.77;;;;;;;9.52;100.00;100406.97;5085666;28;20193;-76
2024/02/27 08:45:12;;;;;;;34.95;17.88;;;;;;;9.61;100.00;100417.22;5067483;28;20717;-77
2024/02/27 08:47:37;;;;;;;33.08;17.50;;;;;;;9.14;100.00;100395.03;5085897;28;20473;-77
2024/02/27 08:50:04;;;;;;;37.22;19.38;;;;;;;10.00;100.00;100412.91;5067217;28;20070;-77
2024/02/27 08:52:30;;;;;;;29.90;17.08;;;;;;;9.98;100.00;100420.28;5085930;28;20032;-77
2024/02/27 08:54:55;;;;;;;33.63;17.38;;;;;;;10.05;100.00;100405.13;5086095;28;20027;-77
2024/02/27 08:57:21;;;;;;;28.70;16.02;;;;;;;10.26;100.00;100419.25;5086957;28;20058;-76
2024/02/27 08:59:47;;;;;;;29.15;16.05;;;;;;;10.47;100.00;100412.88;5068962;28;20028;-76
2024/02/27 09:02:16;;;;;;;29.65;16.75;;;;;;;10.83;100.00;100423.00;5087367;28;20082;-77
2024/02/27 09:04:42;;;;;;;31.67;18.13;;;;;;;10.63;100.00;100406.25;5087201;28;20035;-77
2024/02/27 09:07:10;;;;;;;26.33;16.23;;;;;;;10.49;100.00;100404.66;5069038;28;20089;-76
2024/02/27 09:09:36;;;;;;;28.15;17.20;;;;;;;10.67;100.00;100431.47;5068029;28;20028;-77
2024/02/27 09:12:03;;;;;;;24.65;14.80;;;;;;;10.68;100.00;100419.75;5086702;28;20445;-77
2024/02/27 09:14:28;;;;;;;33.67;16.40;;;;;;;10.84;100.00;100413.94;5068431;28;20024;-76
2024/02/27 09:16:54;;;;;;;25.80;16.17;;;;;;;11.05;100.00;100404.00;5086787;28;20736;-77
2024/02/27 09:19:20;;;;;;;28.10;15.00;;;;;;;11.14;100.00;100397.41;5086652;28;20028;-77
2024/02/27 09:21:45;;;;;;;27.23;15.40;;;;;;;11.43;100.00;100443.22;5086202;28;20032;-76
2024/02/27 09:24:11;;;;;;;23.83;15.18;;;;;;;11.19;100.00;100418.09;5085597;28;20024;-76
2024/02/27 09:26:36;;;;;;;29.13;15.50;;;;;;;11.63;100.00;100430.56;5086207;28;20048;-76
2024/02/27 09:29:02;;;;;;;27.30;14.98;;;;;;;11.60;100.00;100414.94;5068670;28;20066;-76
2024/02/27 09:31:27;;;;;;;23.85;15.00;;;;;;;11.93;100.00;100416.59;5086338;28;20401;-78
2024/02/27 09:33:53;;;;;;;29.15;16.25;;;;;;;12.27;100.00;100428.59;5086557;28;20058;-76
2024/02/27 09:36:18;;;;;;;26.00;15.48;;;;;;;12.08;100.00;100442.16;5068314;28;20021;-76
2024/02/27 09:38:44;;;;;;;25.85;16.13;;;;;;;12.46;100.00;100439.28;5086555;28;20027;-78
2024/02/27 09:41:25;;;;;;;26.95;15.95;;;;;;;12.06;100.00;100421.81;5068061;28;20040;-76
2024/02/27 09:43:54;;;;;;;24.13;14.65;;;;;;;11.99;100.00;100426.41;5086430;28;20028;-77
2024/02/27 09:46:22;;;;;;;22.50;14.32;;;;;;;12.16;100.00;100425.84;5086122;28;20458;-78
2024/02/27 09:48:51;;;;;;;27.67;14.30;;;;;;;12.03;100.00;100426.75;5086356;28;20024;-77
2024/02/27 09:51:18;;;;;;;24.52;14.35;;;;;;;12.02;100.00;100399.22;5078867;28;20108;-78
2024/02/27 09:53:46;;;;;;;22.13;13.47;;;;;;;12.76;100.00;100409.13;5086387;28;20039;-78
2024/02/27 09:56:15;;;;;;;22.20;13.00;;;;;;;12.60;100.00;100399.84;5086063;28;20643;-78
2024/02/27 09:58:42;;;;;;;24.70;13.32;;;;;;;12.42;100.00;100414.03;5086020;28;20358;-76
2024/02/27 10:01:12;;;;;;;21.67;13.25;;;;;;;12.73;100.00;100388.16;5085886;28;20036;-78
2024/02/27 10:03:41;;;;;;;23.50;14.05;;;;;;;12.73;100.00;100415.75;5085898;28;20040;-79
2024/02/27 10:06:09;;;;;;;22.63;13.23;;;;;;;13.14;100.00;100410.72;5085948;28;20068;-78
2024/02/27 10:08:36;;;;;;;20.88;12.05;;;;;;;13.17;100.00;100378.91;5086144;28;20028;-78
2024/02/27 10:11:03;;;;;;;21.70;11.83;;;;;;;13.08;99.65;100401.72;5067573;28;20603;-77
2024/02/27 10:13:28;;;;;;;20.40;12.23;;;;;;;13.75;96.13;100400.72;5084763;28;20119;-77
2024/02/27 10:15:53;;;;;;;18.33;11.45;;;;;;;13.70;93.95;100397.94;5074946;28;20397;-77
2024/02/27 10:18:19;;;;;;;20.52;11.90;;;;;;;14.14;94.90;100393.88;5065578;28;20032;-77
2024/02/27 10:20:44;;;;;;;21.55;12.43;;;;;;;14.03;94.59;100406.22;5085857;28;20112;-77
2024/02/27 10:23:10;;;;;;;19.98;11.43;;;;;;;13.54;93.35;100378.00;5085806;28;20115;-78
2024/02/27 10:25:35;;;;;;;18.02;12.02;;;;;;;13.69;94.75;100390.94;5085928;28;20154;-77
2024/02/27 10:28:01;;;;;;;19.27;11.40;;;;;;;14.10;94.44;100373.94;5085470;28;20385;-78
2024/02/27 10:30:27;;;;;;;21.95;11.45;;;;;;;14.30;89.62;100370.06;5067472;28;20024;-79
2024/02/27 10:32:53;;;;;;;17.27;10.95;;;;;;;14.41;92.75;100369.25;5067542;28;20039;-77
2024/02/27 10:35:19;;;;;;;17.10;11.48;;;;;;;14.21;92.33;100364.25;5087520;28;20024;-78
2024/02/27 10:37:45;;;;;;;14.98;10.43;;;;;;;13.80;93.72;100369.50;5089717;28;20031;-77
2024/02/27 10:40:13;;;;;;;18.67;12.35;;;;;;;14.36;93.08;100353.03;5085102;28;20043;-77
2024/02/27 10:42:40;;;;;;;;;;;;;;;15.02;88.64;100389.25;5089665;28;20031;-77
2024/02/27 10:45:06;;;;;;;17.70;11.60;;;;;;;15.15;85.55;100376.59;5086050;28;20030;-77
2024/02/27 10:47:33;;;;;;;17.35;10.95;;;;;;;15.18;85.06;100368.03;5087466;28;20036;-77
2024/02/27 10:50:01;;;;;;;16.60;10.75;;;;;;;15.02;86.39;100383.09;5080597;28;20060;-78
2024/02/27 10:52:30;;;;;;;19.52;11.55;;;;;;;15.14;84.57;100359.66;5084013;28;20073;-78
2024/02/27 10:54:58;;;;;;;16.67;10.73;;;;;;;15.52;85.56;100374.25;5088001;28;20405;-77
2024/02/27 10:57:24;;;;;;;17.85;11.65;;;;;;;15.54;83.43;100369.44;5089268;28;20074;-77
2024/02/27 10:59:52;;;;;;;16.10;10.55;;;;;;;15.20;82.53;100366.75;5085295;28;20032;-77
2024/02/27 11:02:18;;;;;;;17.87;11.40;;;;;;;15.29;82.21;100360.97;5088998;28;20028;-77
2024/02/27 11:04:46;;;;;;;18.70;12.00;;;;;;;15.72;80.53;100354.16;5069789;28;20386;-77
2024/02/27 11:07:13;;;;;;;24.95;16.27;;;;;;;15.82;79.53;100355.13;5053585;28;20382;-77